Impacts TAF Board INFO
FOR SITUATIONAL AWARENESS. NOT TO BE USED FOR FLIGHT PLANNING PURPOSES.
IDs:

KDCA - Washington/National, VA, US

Issued at 2325 UTC 24 May 2017
Updated at 0259 UTC 25 May 2017
Potential Impact None Slight Moderate High
Time0252Z 25/03Z 25/04Z 25/05Z 25/06Z 25/07Z 25/08Z 25/09Z 25/10Z 25/11Z 25/12Z 25/13Z 25/14Z 25/15Z>>
Type OBS PRVL PRVL PRVL PRVL PRVL PRVL PRVL PRVL PRVL PRVL PRVL PRVL PRVL
VIS 10 >6 6 6 6 4 4 4 4 4 >6 >6 >6 >6
CIG 16 11 8 8 8 5 5 5 5 5 8 8 8 8
Cover OVC OVC OVC OVC OVC OVC OVC OVC OVC OVC OVC OVC OVC OVC
FltCat MVFR MVFR IFR IFR IFR IFR IFR IFR IFR IFR IFR IFR IFR IFR
WX -RA -RA -RA BR -RA BR -RA BR RA BR RA BR RA BR RA BR RA BR -- -- -- --
WDir 90 90 70 70 70 70 70 70 70 70 120 120 120 120
WSpd 11 11 13 13 13 12 12 12 12 12 6 6 6 6
WGst -- 20 22 22 22 22 22 22 22 22 -- -- -- --

Raw TAF
KDCA 242325Z 2500/2524 10007KT P6SM OVC015
  FM250300 09011G20KT P6SM -RA OVC011
  FM250400 07013G22KT 6SM -RA BR OVC008
  FM250700 07012G22KT 4SM RA BR OVC005
  FM251200 12006KT P6SM OVC008
  FM251600 19009KT P6SM -SHRA BKN045


Raw METAR
KDCA 250252Z 09011KT 10SM -RA OVC016 17/14 A2971 RMK AO2 RAB47 SLP058 P0000 60000 T01670139 58004
KDCA 250152Z 10011G18KT 10SM OVC018 17/14 A2972 RMK AO2 LTG DSNT SE SLP062 T01720139
KDCA 250057Z 09008KT 10SM BKN021 OVC046 17/14 A2971 RMK AO2 T01720139
KDCA 250052Z 10010G19KT 10SM SCT021 OVC046 18/14 A2971 RMK AO2 SLP059 T01780139
KDCA 250022Z 10013G19KT 10SM SCT022 SCT028 OVC047 18/14 A2972 RMK AO2 T01780139
KDCA 242352Z 12009KT 10SM OVC022 18/14 A2972 RMK AO2 SLP062 T01830144 10183 20178 55003

METAR Board
Radar Display
Forecast Discussion

FOR SITUATIONAL AWARENESS. NOT TO BE USED FOR FLIGHT PLANNING PURPOSES.

Page loaded:  02:59 UTC  |   07:59 PM Pacific  |   08:59 PM Mountain  |   09:59 PM Central  |   10:59 PM Eastern

 

ADVISORIES

FORECASTS

FORECASTS

OBSERVATIONS

USER TOOLS

ABOUT US